sensor_id;sensor_type;location;lat;lon;timestamp;temperature;humidity
15083;DHT22;7640;53.116;6.878;2023-07-09T00:02:25;23.40;99.90
15083;DHT22;7640;53.116;6.878;2023-07-09T00:05:01;23.30;99.90
15083;DHT22;7640;53.116;6.878;2023-07-09T00:07:35;23.30;99.90
15083;DHT22;7640;53.116;6.878;2023-07-09T00:10:21;23.30;99.90
15083;DHT22;7640;53.116;6.878;2023-07-09T00:13:01;23.30;99.90
15083;DHT22;7640;53.116;6.878;2023-07-09T00:15:37;23.30;99.90
15083;DHT22;7640;53.116;6.878;2023-07-09T00:18:10;23.20;99.90
15083;DHT22;7640;53.116;6.878;2023-07-09T00:20:42;23.20;99.90
15083;DHT22;7640;53.116;6.878;2023-07-09T00:23:18;23.30;99.90
15083;DHT22;7640;53.116;6.878;2023-07-09T00:25:54;23.10;99.90
15083;DHT22;7640;53.116;6.878;2023-07-09T00:28:33;23.10;99.90
15083;DHT22;7640;53.116;6.878;2023-07-09T00:31:16;23.00;99.90
15083;DHT22;7640;53.116;6.878;2023-07-09T00:33:53;23.00;99.90
15083;DHT22;7640;53.116;6.878;2023-07-09T00:36:30;23.00;99.90
15083;DHT22;7640;53.116;6.878;2023-07-09T00:39:03;22.90;99.90
15083;DHT22;7640;53.116;6.878;2023-07-09T00:41:43;22.90;99.90
15083;DHT22;7640;53.116;6.878;2023-07-09T00:44:28;22.90;99.90
15083;DHT22;7640;53.116;6.878;2023-07-09T00:47:23;22.90;99.90
15083;DHT22;7640;53.116;6.878;2023-07-09T00:50:11;22.90;99.90
15083;DHT22;7640;53.116;6.878;2023-07-09T00:52:53;22.80;99.90
15083;DHT22;7640;53.116;6.878;2023-07-09T00:55:30;22.80;99.90
15083;DHT22;7640;53.116;6.878;2023-07-09T00:58:15;22.80;99.90
15083;DHT22;7640;53.116;6.878;2023-07-09T01:00:50;22.70;99.90
15083;DHT22;7640;53.116;6.878;2023-07-09T01:03:31;22.70;99.90
15083;DHT22;7640;53.116;6.878;2023-07-09T01:06:26;22.70;99.90
15083;DHT22;7640;53.116;6.878;2023-07-09T01:09:02;22.70;99.90
15083;DHT22;7640;53.116;6.878;2023-07-09T01:11:36;22.60;99.90
15083;DHT22;7640;53.116;6.878;2023-07-09T01:14:19;22.70;99.90
15083;DHT22;7640;53.116;6.878;2023-07-09T01:17:00;22.60;99.90
15083;DHT22;7640;53.116;6.878;2023-07-09T01:19:37;22.60;99.90
15083;DHT22;7640;53.116;6.878;2023-07-09T01:22:17;22.60;99.90
15083;DHT22;7640;53.116;6.878;2023-07-09T01:24:57;22.50;99.90
15083;DHT22;7640;53.116;6.878;2023-07-09T01:27:38;22.50;99.90
15083;DHT22;7640;53.116;6.878;2023-07-09T01:30:16;22.40;99.90
15083;DHT22;7640;53.116;6.878;2023-07-09T01:32:57;22.40;99.90
15083;DHT22;7640;53.116;6.878;2023-07-09T01:35:31;22.40;99.90
15083;DHT22;7640;53.116;6.878;2023-07-09T01:38:06;22.30;99.90
15083;DHT22;7640;53.116;6.878;2023-07-09T01:40:39;22.30;99.90
15083;DHT22;7640;53.116;6.878;2023-07-09T01:43:17;22.30;99.90
15083;DHT22;7640;53.116;6.878;2023-07-09T01:45:53;22.30;99.90
15083;DHT22;7640;53.116;6.878;2023-07-09T01:48:32;22.20;99.90
15083;DHT22;7640;53.116;6.878;2023-07-09T01:51:15;22.20;99.90
15083;DHT22;7640;53.116;6.878;2023-07-09T01:54:05;22.10;99.90
15083;DHT22;7640;53.116;6.878;2023-07-09T01:56:41;22.10;99.90
15083;DHT22;7640;53.116;6.878;2023-07-09T01:59:12;22.00;99.90
15083;DHT22;7640;53.116;6.878;2023-07-09T02:01:46;22.00;99.90
15083;DHT22;7640;53.116;6.878;2023-07-09T02:04:19;22.00;99.90
15083;DHT22;7640;53.116;6.878;2023-07-09T02:06:57;22.00;99.90
15083;DHT22;7640;53.116;6.878;2023-07-09T02:09:32;21.90;99.90
15083;DHT22;7640;53.116;6.878;2023-07-09T02:12:04;21.90;99.90
15083;DHT22;7640;53.116;6.878;2023-07-09T02:14:38;21.90;99.90
15083;DHT22;7640;53.116;6.878;2023-07-09T02:17:14;21.80;99.90
15083;DHT22;7640;53.116;6.878;2023-07-09T02:19:49;21.80;99.90
15083;DHT22;7640;53.116;6.878;2023-07-09T02:22:22;21.80;99.90
15083;DHT22;7640;53.116;6.878;2023-07-09T02:24:56;21.80;99.90
15083;DHT22;7640;53.116;6.878;2023-07-09T02:27:29;21.70;99.90
15083;DHT22;7640;53.116;6.878;2023-07-09T02:29:59;21.70;99.90
15083;DHT22;7640;53.116;6.878;2023-07-09T02:32:37;21.70;99.90
15083;DHT22;7640;53.116;6.878;2023-07-09T02:35:20;21.70;99.90
15083;DHT22;7640;53.116;6.878;2023-07-09T02:37:54;21.70;99.90
15083;DHT22;7640;53.116;6.878;2023-07-09T02:40:26;21.60;99.90
15083;DHT22;7640;53.116;6.878;2023-07-09T02:43:14;21.60;99.90
15083;DHT22;7640;53.116;6.878;2023-07-09T02:45:45;21.60;99.90
15083;DHT22;7640;53.116;6.878;2023-07-09T02:48:20;21.60;99.90
15083;DHT22;7640;53.116;6.878;2023-07-09T02:50:54;21.50;99.90
15083;DHT22;7640;53.116;6.878;2023-07-09T02:53:25;21.50;99.90
15083;DHT22;7640;53.116;6.878;2023-07-09T02:55:59;21.50;99.90
15083;DHT22;7640;53.116;6.878;2023-07-09T02:58:32;21.50;99.90
15083;DHT22;7640;53.116;6.878;2023-07-09T03:01:07;21.50;99.90
15083;DHT22;7640;53.116;6.878;2023-07-09T03:03:47;21.40;99.90
15083;DHT22;7640;53.116;6.878;2023-07-09T03:06:20;21.40;99.90
15083;DHT22;7640;53.116;6.878;2023-07-09T03:08:56;21.40;99.90
15083;DHT22;7640;53.116;6.878;2023-07-09T03:11:33;21.40;99.90
15083;DHT22;7640;53.116;6.878;2023-07-09T03:14:09;21.40;99.90
15083;DHT22;7640;53.116;6.878;2023-07-09T03:16:42;21.40;99.90
15083;DHT22;7640;53.116;6.878;2023-07-09T03:19:16;21.30;99.90
15083;DHT22;7640;53.116;6.878;2023-07-09T03:21:49;21.30;99.90
15083;DHT22;7640;53.116;6.878;2023-07-09T03:24:24;21.30;99.90
15083;DHT22;7640;53.116;6.878;2023-07-09T03:27:03;21.30;99.90
15083;DHT22;7640;53.116;6.878;2023-07-09T03:29:36;21.30;99.90
15083;DHT22;7640;53.116;6.878;2023-07-09T03:32:10;21.20;99.90
15083;DHT22;7640;53.116;6.878;2023-07-09T03:34:43;21.20;99.90
15083;DHT22;7640;53.116;6.878;2023-07-09T03:37:19;21.20;99.90
15083;DHT22;7640;53.116;6.878;2023-07-09T03:39:50;21.20;99.90
15083;DHT22;7640;53.116;6.878;2023-07-09T03:42:24;21.20;99.90
15083;DHT22;7640;53.116;6.878;2023-07-09T03:44:55;21.20;99.90
15083;DHT22;7640;53.116;6.878;2023-07-09T03:47:25;21.20;99.90
15083;DHT22;7640;53.116;6.878;2023-07-09T03:49:57;21.10;99.90
15083;DHT22;7640;53.116;6.878;2023-07-09T03:52:29;21.10;99.90
15083;DHT22;7640;53.116;6.878;2023-07-09T03:55:00;21.20;99.90
15083;DHT22;7640;53.116;6.878;2023-07-09T03:57:35;21.20;99.90
15083;DHT22;7640;53.116;6.878;2023-07-09T04:00:11;21.20;99.90
15083;DHT22;7640;53.116;6.878;2023-07-09T04:02:45;21.20;99.90
15083;DHT22;7640;53.116;6.878;2023-07-09T04:05:19;21.20;99.90
15083;DHT22;7640;53.116;6.878;2023-07-09T04:07:50;21.20;99.90
15083;DHT22;7640;53.116;6.878;2023-07-09T04:10:25;21.20;99.90
15083;DHT22;7640;53.116;6.878;2023-07-09T04:12:58;21.20;99.90
15083;DHT22;7640;53.116;6.878;2023-07-09T04:15:29;21.30;99.90
15083;DHT22;7640;53.116;6.878;2023-07-09T04:17:59;21.30;99.90
15083;DHT22;7640;53.116;6.878;2023-07-09T04:20:30;21.30;99.90
15083;DHT22;7640;53.116;6.878;2023-07-09T04:23:05;21.40;99.90
15083;DHT22;7640;53.116;6.878;2023-07-09T04:25:36;21.40;99.90
15083;DHT22;7640;53.116;6.878;2023-07-09T04:28:09;21.50;99.90
15083;DHT22;7640;53.116;6.878;2023-07-09T04:30:49;21.50;99.90
15083;DHT22;7640;53.116;6.878;2023-07-09T04:33:24;21.50;99.90
15083;DHT22;7640;53.116;6.878;2023-07-09T04:35:57;21.60;99.90
15083;DHT22;7640;53.116;6.878;2023-07-09T04:38:33;21.60;99.90
15083;DHT22;7640;53.116;6.878;2023-07-09T04:41:05;21.70;99.90
15083;DHT22;7640;53.116;6.878;2023-07-09T04:43:37;21.70;99.90
15083;DHT22;7640;53.116;6.878;2023-07-09T04:46:11;21.80;99.90
15083;DHT22;7640;53.116;6.878;2023-07-09T04:48:45;21.90;99.90
15083;DHT22;7640;53.116;6.878;2023-07-09T04:51:18;21.90;99.90
15083;DHT22;7640;53.116;6.878;2023-07-09T04:53:50;22.00;99.90
15083;DHT22;7640;53.116;6.878;2023-07-09T04:56:22;22.00;99.90
15083;DHT22;7640;53.116;6.878;2023-07-09T04:58:55;22.10;99.90
15083;DHT22;7640;53.116;6.878;2023-07-09T05:01:28;22.10;99.90
15083;DHT22;7640;53.116;6.878;2023-07-09T05:03:59;22.20;99.90
15083;DHT22;7640;53.116;6.878;2023-07-09T05:06:28;22.20;99.90
15083;DHT22;7640;53.116;6.878;2023-07-09T05:09:03;22.30;99.90
15083;DHT22;7640;53.116;6.878;2023-07-09T05:11:38;22.40;99.90
15083;DHT22;7640;53.116;6.878;2023-07-09T05:14:11;22.40;99.90
15083;DHT22;7640;53.116;6.878;2023-07-09T05:16:43;22.50;99.90
15083;DHT22;7640;53.116;6.878;2023-07-09T05:19:14;22.60;99.90
15083;DHT22;7640;53.116;6.878;2023-07-09T05:21:46;22.70;99.90
15083;DHT22;7640;53.116;6.878;2023-07-09T05:24:16;22.80;99.90
15083;DHT22;7640;53.116;6.878;2023-07-09T05:26:50;22.90;99.90
15083;DHT22;7640;53.116;6.878;2023-07-09T05:29:23;23.00;99.90
15083;DHT22;7640;53.116;6.878;2023-07-09T05:31:57;23.10;99.90
15083;DHT22;7640;53.116;6.878;2023-07-09T05:34:33;23.20;99.90
15083;DHT22;7640;53.116;6.878;2023-07-09T05:37:07;23.30;99.90
15083;DHT22;7640;53.116;6.878;2023-07-09T05:39:42;23.40;99.90
15083;DHT22;7640;53.116;6.878;2023-07-09T05:42:15;23.50;99.90
15083;DHT22;7640;53.116;6.878;2023-07-09T05:44:49;23.60;99.90
15083;DHT22;7640;53.116;6.878;2023-07-09T05:47:21;23.70;99.90
15083;DHT22;7640;53.116;6.878;2023-07-09T05:49:52;23.80;99.90
15083;DHT22;7640;53.116;6.878;2023-07-09T05:52:24;23.90;99.90
15083;DHT22;7640;53.116;6.878;2023-07-09T05:54:56;24.00;99.90
15083;DHT22;7640;53.116;6.878;2023-07-09T05:57:31;24.10;99.90
15083;DHT22;7640;53.116;6.878;2023-07-09T06:00:14;24.20;99.90
15083;DHT22;7640;53.116;6.878;2023-07-09T06:02:48;24.30;99.90
15083;DHT22;7640;53.116;6.878;2023-07-09T06:05:19;24.40;99.90
15083;DHT22;7640;53.116;6.878;2023-07-09T06:07:49;24.60;99.90
15083;DHT22;7640;53.116;6.878;2023-07-09T06:10:19;24.60;99.90
15083;DHT22;7640;53.116;6.878;2023-07-09T06:12:49;24.70;99.90
15083;DHT22;7640;53.116;6.878;2023-07-09T06:15:24;24.80;99.90
15083;DHT22;7640;53.116;6.878;2023-07-09T06:17:56;24.80;99.90
15083;DHT22;7640;53.116;6.878;2023-07-09T06:20:28;25.00;99.90
15083;DHT22;7640;53.116;6.878;2023-07-09T06:23:00;24.90;99.90
15083;DHT22;7640;53.116;6.878;2023-07-09T06:25:33;25.00;99.90
15083;DHT22;7640;53.116;6.878;2023-07-09T06:28:07;24.90;99.90
15083;DHT22;7640;53.116;6.878;2023-07-09T06:30:40;25.00;99.90
15083;DHT22;7640;53.116;6.878;2023-07-09T06:33:13;25.00;99.90
15083;DHT22;7640;53.116;6.878;2023-07-09T06:35:47;25.00;99.90
15083;DHT22;7640;53.116;6.878;2023-07-09T06:38:20;25.00;99.90
15083;DHT22;7640;53.116;6.878;2023-07-09T06:40:52;25.00;99.90
15083;DHT22;7640;53.116;6.878;2023-07-09T06:43:24;25.00;99.90
15083;DHT22;7640;53.116;6.878;2023-07-09T06:45:59;25.10;99.90
15083;DHT22;7640;53.116;6.878;2023-07-09T06:48:30;25.10;99.90
15083;DHT22;7640;53.116;6.878;2023-07-09T06:51:01;25.20;99.90
15083;DHT22;7640;53.116;6.878;2023-07-09T06:53:32;25.30;99.90
15083;DHT22;7640;53.116;6.878;2023-07-09T06:56:02;25.40;99.90
15083;DHT22;7640;53.116;6.878;2023-07-09T06:58:34;25.50;99.90
15083;DHT22;7640;53.116;6.878;2023-07-09T07:01:07;25.70;99.90
15083;DHT22;7640;53.116;6.878;2023-07-09T07:03:39;25.80;99.90
15083;DHT22;7640;53.116;6.878;2023-07-09T07:06:13;25.90;99.90
15083;DHT22;7640;53.116;6.878;2023-07-09T07:08:48;26.10;99.90
15083;DHT22;7640;53.116;6.878;2023-07-09T07:11:23;26.20;99.90
15083;DHT22;7640;53.116;6.878;2023-07-09T07:13:58;26.40;99.90
15083;DHT22;7640;53.116;6.878;2023-07-09T07:16:31;26.50;99.90
15083;DHT22;7640;53.116;6.878;2023-07-09T07:19:03;26.60;99.90
15083;DHT22;7640;53.116;6.878;2023-07-09T07:21:44;26.80;99.90
15083;DHT22;7640;53.116;6.878;2023-07-09T07:24:17;26.90;99.90
15083;DHT22;7640;53.116;6.878;2023-07-09T07:26:50;27.00;99.90
15083;DHT22;7640;53.116;6.878;2023-07-09T07:29:33;27.10;99.90
15083;DHT22;7640;53.116;6.878;2023-07-09T07:32:07;27.30;99.90
15083;DHT22;7640;53.116;6.878;2023-07-09T07:34:39;27.40;99.90
15083;DHT22;7640;53.116;6.878;2023-07-09T07:37:12;27.60;99.90
15083;DHT22;7640;53.116;6.878;2023-07-09T07:39:45;27.70;99.90
15083;DHT22;7640;53.116;6.878;2023-07-09T07:42:16;27.90;99.90
15083;DHT22;7640;53.116;6.878;2023-07-09T07:44:49;28.00;99.90
15083;DHT22;7640;53.116;6.878;2023-07-09T07:47:23;28.10;99.90
15083;DHT22;7640;53.116;6.878;2023-07-09T07:49:56;28.20;99.90
15083;DHT22;7640;53.116;6.878;2023-07-09T07:52:29;28.30;99.90
15083;DHT22;7640;53.116;6.878;2023-07-09T07:55:03;28.40;99.90
15083;DHT22;7640;53.116;6.878;2023-07-09T07:57:34;28.40;99.90
15083;DHT22;7640;53.116;6.878;2023-07-09T08:00:07;28.50;99.90
15083;DHT22;7640;53.116;6.878;2023-07-09T08:02:42;28.50;99.90
15083;DHT22;7640;53.116;6.878;2023-07-09T08:05:16;28.70;99.90
15083;DHT22;7640;53.116;6.878;2023-07-09T08:07:47;28.70;99.90
15083;DHT22;7640;53.116;6.878;2023-07-09T08:10:18;28.90;99.90
15083;DHT22;7640;53.116;6.878;2023-07-09T08:12:53;29.00;99.90
15083;DHT22;7640;53.116;6.878;2023-07-09T08:15:25;29.10;99.90
15083;DHT22;7640;53.116;6.878;2023-07-09T08:17:58;29.30;99.90
15083;DHT22;7640;53.116;6.878;2023-07-09T08:20:34;29.40;99.90
15083;DHT22;7640;53.116;6.878;2023-07-09T08:23:05;29.60;99.90
15083;DHT22;7640;53.116;6.878;2023-07-09T08:25:36;29.70;99.90
15083;DHT22;7640;53.116;6.878;2023-07-09T08:28:10;29.80;99.90
15083;DHT22;7640;53.116;6.878;2023-07-09T08:30:44;29.90;99.90
15083;DHT22;7640;53.116;6.878;2023-07-09T08:33:15;30.00;99.90
15083;DHT22;7640;53.116;6.878;2023-07-09T08:35:45;30.10;99.90
15083;DHT22;7640;53.116;6.878;2023-07-09T08:38:17;30.30;99.90
15083;DHT22;7640;53.116;6.878;2023-07-09T08:40:58;30.50;99.90
15083;DHT22;7640;53.116;6.878;2023-07-09T08:43:39;30.70;99.90
15083;DHT22;7640;53.116;6.878;2023-07-09T08:46:30;30.80;99.90
15083;DHT22;7640;53.116;6.878;2023-07-09T08:49:17;31.00;99.90
15083;DHT22;7640;53.116;6.878;2023-07-09T08:51:55;31.10;99.90
15083;DHT22;7640;53.116;6.878;2023-07-09T08:54:30;31.20;99.90
15083;DHT22;7640;53.116;6.878;2023-07-09T08:57:17;31.20;99.90
15083;DHT22;7640;53.116;6.878;2023-07-09T08:59:59;31.40;99.90
15083;DHT22;7640;53.116;6.878;2023-07-09T09:02:43;31.40;99.90
15083;DHT22;7640;53.116;6.878;2023-07-09T09:05:18;31.50;99.90
15083;DHT22;7640;53.116;6.878;2023-07-09T09:07:56;31.60;99.80
15083;DHT22;7640;53.116;6.878;2023-07-09T09:10:42;31.70;99.50
15083;DHT22;7640;53.116;6.878;2023-07-09T09:13:17;31.70;99.30
15083;DHT22;7640;53.116;6.878;2023-07-09T09:15:52;31.80;99.30
15083;DHT22;7640;53.116;6.878;2023-07-09T09:18:27;31.90;98.90
15083;DHT22;7640;53.116;6.878;2023-07-09T09:21:06;31.90;98.60
15083;DHT22;7640;53.116;6.878;2023-07-09T09:23:48;31.90;98.60
15083;DHT22;7640;53.116;6.878;2023-07-09T09:26:29;32.10;98.90
15083;DHT22;7640;53.116;6.878;2023-07-09T09:29:09;32.20;98.80
15083;DHT22;7640;53.116;6.878;2023-07-09T09:31:46;32.40;98.50
15083;DHT22;7640;53.116;6.878;2023-07-09T09:34:25;32.50;98.50
15083;DHT22;7640;53.116;6.878;2023-07-09T09:37:21;32.60;98.10
15083;DHT22;7640;53.116;6.878;2023-07-09T09:39:59;32.70;97.80
15083;DHT22;7640;53.116;6.878;2023-07-09T09:42:35;32.80;98.30
15083;DHT22;7640;53.116;6.878;2023-07-09T09:45:12;33.00;98.30
15083;DHT22;7640;53.116;6.878;2023-07-09T09:47:46;33.20;97.70
15083;DHT22;7640;53.116;6.878;2023-07-09T09:50:22;33.30;97.30
15083;DHT22;7640;53.116;6.878;2023-07-09T09:53:03;33.30;97.10
15083;DHT22;7640;53.116;6.878;2023-07-09T09:55:42;33.40;96.80
15083;DHT22;7640;53.116;6.878;2023-07-09T09:58:18;33.60;97.10
15083;DHT22;7640;53.116;6.878;2023-07-09T10:00:55;33.60;97.00
15083;DHT22;7640;53.116;6.878;2023-07-09T10:03:37;33.70;96.80
15083;DHT22;7640;53.116;6.878;2023-07-09T10:06:16;33.80;96.40
15083;DHT22;7640;53.116;6.878;2023-07-09T10:09:02;33.80;96.30
15083;DHT22;7640;53.116;6.878;2023-07-09T10:11:49;34.00;96.40
15083;DHT22;7640;53.116;6.878;2023-07-09T10:14:34;34.00;96.10
15083;DHT22;7640;53.116;6.878;2023-07-09T10:17:28;34.00;96.30
15083;DHT22;7640;53.116;6.878;2023-07-09T10:20:16;34.00;96.10
15083;DHT22;7640;53.116;6.878;2023-07-09T10:23:00;34.00;95.70
15083;DHT22;7640;53.116;6.878;2023-07-09T10:25:47;34.10;95.60
15083;DHT22;7640;53.116;6.878;2023-07-09T10:31:36;34.30;95.50
15083;DHT22;7640;53.116;6.878;2023-07-09T10:34:24;34.30;95.00
15083;DHT22;7640;53.116;6.878;2023-07-09T10:37:14;34.40;94.70
15083;DHT22;7640;53.116;6.878;2023-07-09T10:40:14;34.50;94.60
15083;DHT22;7640;53.116;6.878;2023-07-09T10:42:54;34.50;94.10
15083;DHT22;7640;53.116;6.878;2023-07-09T10:45:30;34.60;93.90
15083;DHT22;7640;53.116;6.878;2023-07-09T10:48:06;34.70;94.20
15083;DHT22;7640;53.116;6.878;2023-07-09T10:50:52;34.70;94.00
15083;DHT22;7640;53.116;6.878;2023-07-09T10:53:31;34.80;93.50
15083;DHT22;7640;53.116;6.878;2023-07-09T10:56:08;34.90;93.00
15083;DHT22;7640;53.116;6.878;2023-07-09T10:58:55;35.00;92.60
15083;DHT22;7640;53.116;6.878;2023-07-09T11:01:38;34.90;92.80
15083;DHT22;7640;53.116;6.878;2023-07-09T11:04:24;35.00;92.60
15083;DHT22;7640;53.116;6.878;2023-07-09T11:07:04;35.20;93.10
15083;DHT22;7640;53.116;6.878;2023-07-09T11:09:51;35.30;93.40
15083;DHT22;7640;53.116;6.878;2023-07-09T11:12:32;35.50;92.90
15083;DHT22;7640;53.116;6.878;2023-07-09T11:15:14;35.60;91.80
15083;DHT22;7640;53.116;6.878;2023-07-09T11:17:58;35.70;91.60
15083;DHT22;7640;53.116;6.878;2023-07-09T11:20:35;35.80;91.20
15083;DHT22;7640;53.116;6.878;2023-07-09T11:23:21;35.90;91.00
15083;DHT22;7640;53.116;6.878;2023-07-09T11:26:14;35.90;91.00
15083;DHT22;7640;53.116;6.878;2023-07-09T11:29:14;36.10;91.30
15083;DHT22;7640;53.116;6.878;2023-07-09T11:32:21;36.20;91.20
15083;DHT22;7640;53.116;6.878;2023-07-09T11:35:19;36.40;90.70
15083;DHT22;7640;53.116;6.878;2023-07-09T11:37:56;36.50;90.90
15083;DHT22;7640;53.116;6.878;2023-07-09T11:41:01;36.60;90.80
15083;DHT22;7640;53.116;6.878;2023-07-09T11:43:34;36.70;90.60
15083;DHT22;7640;53.116;6.878;2023-07-09T11:46:14;36.80;90.60
15083;DHT22;7640;53.116;6.878;2023-07-09T11:48:51;37.00;90.30
15083;DHT22;7640;53.116;6.878;2023-07-09T11:51:38;37.10;90.70
15083;DHT22;7640;53.116;6.878;2023-07-09T11:54:14;37.30;89.80
15083;DHT22;7640;53.116;6.878;2023-07-09T11:56:56;37.50;87.90
15083;DHT22;7640;53.116;6.878;2023-07-09T11:59:38;37.70;86.90
15083;DHT22;7640;53.116;6.878;2023-07-09T12:02:18;37.90;86.10
15083;DHT22;7640;53.116;6.878;2023-07-09T12:04:51;38.10;84.80
15083;DHT22;7640;53.116;6.878;2023-07-09T12:07:39;38.30;82.20
15083;DHT22;7640;53.116;6.878;2023-07-09T12:10:32;38.40;82.40
15083;DHT22;7640;53.116;6.878;2023-07-09T12:13:11;38.60;83.50
15083;DHT22;7640;53.116;6.878;2023-07-09T12:15:47;38.80;81.60
15083;DHT22;7640;53.116;6.878;2023-07-09T12:18:23;38.90;80.70
15083;DHT22;7640;53.116;6.878;2023-07-09T12:21:05;39.00;82.30
15083;DHT22;7640;53.116;6.878;2023-07-09T12:23:41;39.20;83.10
15083;DHT22;7640;53.116;6.878;2023-07-09T12:26:15;39.50;82.60
15083;DHT22;7640;53.116;6.878;2023-07-09T12:28:52;39.80;81.90
15083;DHT22;7640;53.116;6.878;2023-07-09T12:31:29;40.00;81.10
15083;DHT22;7640;53.116;6.878;2023-07-09T12:34:04;40.20;77.60
15083;DHT22;7640;53.116;6.878;2023-07-09T12:36:41;40.30;75.70
15083;DHT22;7640;53.116;6.878;2023-07-09T12:39:22;40.30;75.50
15083;DHT22;7640;53.116;6.878;2023-07-09T12:42:00;40.40;76.60
15083;DHT22;7640;53.116;6.878;2023-07-09T12:44:34;40.60;76.70
15083;DHT22;7640;53.116;6.878;2023-07-09T12:47:05;40.80;74.20
15083;DHT22;7640;53.116;6.878;2023-07-09T12:49:40;40.90;73.50
15083;DHT22;7640;53.116;6.878;2023-07-09T12:52:21;41.00;72.80
15083;DHT22;7640;53.116;6.878;2023-07-09T12:54:57;41.10;72.10
15083;DHT22;7640;53.116;6.878;2023-07-09T12:57:31;41.20;72.30
15083;DHT22;7640;53.116;6.878;2023-07-09T13:00:01;41.30;73.50
15083;DHT22;7640;53.116;6.878;2023-07-09T13:02:38;41.30;73.90
15083;DHT22;7640;53.116;6.878;2023-07-09T13:05:17;41.50;74.30
15083;DHT22;7640;53.116;6.878;2023-07-09T13:07:50;41.60;71.80
15083;DHT22;7640;53.116;6.878;2023-07-09T13:10:24;41.50;70.80
15083;DHT22;7640;53.116;6.878;2023-07-09T13:12:55;41.30;70.40
15083;DHT22;7640;53.116;6.878;2023-07-09T13:15:28;40.90;70.20
15083;DHT22;7640;53.116;6.878;2023-07-09T13:17:58;40.70;71.90
15083;DHT22;7640;53.116;6.878;2023-07-09T13:20:29;40.60;72.60
15083;DHT22;7640;53.116;6.878;2023-07-09T13:23:00;40.60;73.80
15083;DHT22;7640;53.116;6.878;2023-07-09T13:25:29;40.70;73.10
15083;DHT22;7640;53.116;6.878;2023-07-09T13:28:17;40.90;73.10
15083;DHT22;7640;53.116;6.878;2023-07-09T13:30:48;40.90;72.30
15083;DHT22;7640;53.116;6.878;2023-07-09T13:33:18;40.70;71.70
15083;DHT22;7640;53.116;6.878;2023-07-09T13:35:47;40.50;72.00
15083;DHT22;7640;53.116;6.878;2023-07-09T13:38:22;40.30;71.90
15083;DHT22;7640;53.116;6.878;2023-07-09T13:40:54;39.90;71.60
15083;DHT22;7640;53.116;6.878;2023-07-09T13:43:28;39.60;72.20
15083;DHT22;7640;53.116;6.878;2023-07-09T13:46:00;39.30;74.00
15083;DHT22;7640;53.116;6.878;2023-07-09T13:48:32;39.20;75.50
15083;DHT22;7640;53.116;6.878;2023-07-09T13:51:10;38.90;77.00
15083;DHT22;7640;53.116;6.878;2023-07-09T13:53:43;38.80;76.70
15083;DHT22;7640;53.116;6.878;2023-07-09T13:56:12;38.50;77.00
15083;DHT22;7640;53.116;6.878;2023-07-09T13:58:42;38.40;76.40
15083;DHT22;7640;53.116;6.878;2023-07-09T14:01:13;38.20;77.60
15083;DHT22;7640;53.116;6.878;2023-07-09T14:03:46;38.10;77.60
15083;DHT22;7640;53.116;6.878;2023-07-09T14:06:17;38.10;77.80
15083;DHT22;7640;53.116;6.878;2023-07-09T14:08:47;38.00;77.70
15083;DHT22;7640;53.116;6.878;2023-07-09T14:11:16;38.10;78.30
15083;DHT22;7640;53.116;6.878;2023-07-09T14:13:46;38.40;78.20
15083;DHT22;7640;53.116;6.878;2023-07-09T14:16:15;39.10;76.40
15083;DHT22;7640;53.116;6.878;2023-07-09T14:18:43;39.90;77.00
15083;DHT22;7640;53.116;6.878;2023-07-09T14:21:13;40.70;74.70
15083;DHT22;7640;53.116;6.878;2023-07-09T14:23:43;41.50;73.90
15083;DHT22;7640;53.116;6.878;2023-07-09T14:26:13;42.00;72.50
15083;DHT22;7640;53.116;6.878;2023-07-09T14:28:42;42.30;71.60
15083;DHT22;7640;53.116;6.878;2023-07-09T14:31:20;42.40;71.20
15083;DHT22;7640;53.116;6.878;2023-07-09T14:33:51;42.30;71.00
15083;DHT22;7640;53.116;6.878;2023-07-09T14:36:20;42.00;70.70
15083;DHT22;7640;53.116;6.878;2023-07-09T14:38:48;41.70;70.70
15083;DHT22;7640;53.116;6.878;2023-07-09T14:41:22;41.30;69.70
15083;DHT22;7640;53.116;6.878;2023-07-09T14:43:53;40.90;69.20
15083;DHT22;7640;53.116;6.878;2023-07-09T14:46:23;40.40;70.90
15083;DHT22;7640;53.116;6.878;2023-07-09T14:48:52;39.90;72.10
15083;DHT22;7640;53.116;6.878;2023-07-09T14:51:20;39.50;73.00
15083;DHT22;7640;53.116;6.878;2023-07-09T14:53:49;39.10;73.70
15083;DHT22;7640;53.116;6.878;2023-07-09T14:56:17;38.70;74.20
15083;DHT22;7640;53.116;6.878;2023-07-09T14:58:48;38.40;75.80
15083;DHT22;7640;53.116;6.878;2023-07-09T15:01:23;38.00;75.90
15083;DHT22;7640;53.116;6.878;2023-07-09T15:03:52;37.70;76.80
15083;DHT22;7640;53.116;6.878;2023-07-09T15:06:20;37.40;77.80
15083;DHT22;7640;53.116;6.878;2023-07-09T15:08:49;37.10;78.20
15083;DHT22;7640;53.116;6.878;2023-07-09T15:11:20;36.90;78.90
15083;DHT22;7640;53.116;6.878;2023-07-09T15:13:48;36.60;79.50
15083;DHT22;7640;53.116;6.878;2023-07-09T15:16:18;36.40;80.70
15083;DHT22;7640;53.116;6.878;2023-07-09T15:18:48;36.30;81.40
15083;DHT22;7640;53.116;6.878;2023-07-09T15:21:17;36.10;81.60
15083;DHT22;7640;53.116;6.878;2023-07-09T15:23:48;35.90;82.40
15083;DHT22;7640;53.116;6.878;2023-07-09T15:26:20;35.70;82.90
15083;DHT22;7640;53.116;6.878;2023-07-09T15:28:49;35.60;83.50
15083;DHT22;7640;53.116;6.878;2023-07-09T15:31:18;35.50;84.30
15083;DHT22;7640;53.116;6.878;2023-07-09T15:33:46;35.40;84.80
15083;DHT22;7640;53.116;6.878;2023-07-09T15:36:15;35.20;85.00
15083;DHT22;7640;53.116;6.878;2023-07-09T15:38:52;35.10;85.80
15083;DHT22;7640;53.116;6.878;2023-07-09T15:41:22;35.00;86.70
15083;DHT22;7640;53.116;6.878;2023-07-09T15:43:50;34.80;88.20
15083;DHT22;7640;53.116;6.878;2023-07-09T15:46:20;34.60;89.70
15083;DHT22;7640;53.116;6.878;2023-07-09T15:48:51;34.30;90.50
15083;DHT22;7640;53.116;6.878;2023-07-09T15:51:24;33.80;88.50
15083;DHT22;7640;53.116;6.878;2023-07-09T15:53:52;32.50;85.30
15083;DHT22;7640;53.116;6.878;2023-07-09T15:56:24;31.30;83.60
15083;DHT22;7640;53.116;6.878;2023-07-09T15:58:57;30.40;85.40
15083;DHT22;7640;53.116;6.878;2023-07-09T16:01:28;29.60;89.30
15083;DHT22;7640;53.116;6.878;2023-07-09T16:03:59;28.80;90.60
15083;DHT22;7640;53.116;6.878;2023-07-09T16:06:36;28.00;91.20
15083;DHT22;7640;53.116;6.878;2023-07-09T16:09:08;27.10;92.50
15083;DHT22;7640;53.116;6.878;2023-07-09T16:11:42;26.30;93.50
15083;DHT22;7640;53.116;6.878;2023-07-09T16:14:24;25.70;94.30
15083;DHT22;7640;53.116;6.878;2023-07-09T16:16:55;25.40;95.00
15083;DHT22;7640;53.116;6.878;2023-07-09T16:19:27;25.20;95.70
15083;DHT22;7640;53.116;6.878;2023-07-09T16:22:00;25.10;96.60
15083;DHT22;7640;53.116;6.878;2023-07-09T16:24:32;25.00;97.30
15083;DHT22;7640;53.116;6.878;2023-07-09T16:27:05;24.90;98.30
15083;DHT22;7640;53.116;6.878;2023-07-09T16:29:37;24.80;98.90
15083;DHT22;7640;53.116;6.878;2023-07-09T16:32:06;24.60;99.30
15083;DHT22;7640;53.116;6.878;2023-07-09T16:34:36;24.40;99.70
15083;DHT22;7640;53.116;6.878;2023-07-09T16:37:10;24.20;99.90
15083;DHT22;7640;53.116;6.878;2023-07-09T16:39:44;24.10;99.90
15083;DHT22;7640;53.116;6.878;2023-07-09T16:42:15;24.00;99.90